CST,Max TemperatureF,Mean TemperatureF,Min TemperatureF,Max Dew PointF,MeanDew PointF,Min DewpointF,Max Humidity, Mean Humidity, Min Humidity, Max Sea Level PressureIn, Mean Sea Level PressureIn, Min Sea Level PressureIn, Max VisibilityMiles, Mean VisibilityMiles, Min VisibilityMiles, Max Wind SpeedMPH, Mean Wind SpeedMPH, Max Gust SpeedMPH,PrecipitationIn, CloudCover, Events, WindDirDegrees
2012-12-1,59,50,41,32,30,25,70,47,33,29.82,29.78,29.70,10,10,10,16,6,25,0.00,0,,275
2012-12-2,62,54,46,28,26,21,46,33,20,29.84,29.60,29.33,10,10,10,48,16,68,0.00,0,,225
2012-12-3,57,46,35,41,20,10,87,44,22,30.10,29.88,29.41,10,10,5,36,20,51,0.20,2,Rain-Thunderstorm,275
2012-12-4,50,41,32,21,16,14,60,37,24,30.20,30.10,30.01,10,10,10,13,8,20,0.00,0,,242
2012-12-5,60,48,37,37,30,21,76,50,34,30.00,29.82,29.69,10,10,9,20,7,29,0.06,2,Rain,248
2012-12-6,37,32,28,27,17,9,93,53,33,30.05,29.96,29.86,10,9,1,12,6,21,0.38,7,Snow,318
2012-12-7,32,28,23,27,23,14,100,85,59,29.90,29.85,29.78,10,8,1,12,4,,2.72,3,Rain-Snow,280
2012-12-8,33,20,6,25,15,1,93,66,41,30.03,29.70,29.56,10,7,1,28,9,40,9.43,3,Rain-Snow,289
2012-12-9,17,8,0,3,-1,-6,85,72,53,30.29,30.14,29.90,10,8,1,22,13,30,1.57,1,Snow,287
2012-12-10,28,22,17,23,15,1,86,67,42,29.89,29.80,29.75,10,9,2,26,14,37,0.35,5,Rain-Snow,281
2012-12-11,39,32,24,19,15,10,74,52,39,29.83,29.69,29.56,10,10,10,23,14,31,0.00,3,,251
2012-12-12,44,34,24,27,22,18,93,60,42,29.80,29.63,29.57,10,10,10,18,7,23,0.00,2,,268
2012-12-13,44,34,23,28,23,18,93,72,39,29.93,29.86,29.78,10,10,10,12,5,23,0.00,0,,247
2012-12-14,48,37,26,27,21,18,80,58,37,29.77,29.66,29.57,10,10,10,10,4,,0.00,0,,166
2012-12-15,35,29,23,21,18,10,80,65,35,29.76,29.71,29.61,10,10,10,9,5,,0.00,3,,264
2012-12-16,32,26,21,23,18,14,86,69,51,29.69,29.63,29.58,10,10,4,13,5,16,0.01,4,Snow,272
2012-12-17,37,27,17,30,18,10,93,65,44,29.68,29.49,29.35,10,10,2,16,5,22,0.51,3,Snow,256
2012-12-18,35,30,24,28,13,5,75,47,32,29.75,29.61,29.44,10,10,5,22,16,33,0.01,3,Snow,278
2012-12-19,26,22,17,12,7,1,59,52,40,30.05,29.92,29.76,10,10,10,16,11,23,0.00,2,Thunderstorm,278
2012-12-20,42,28,15,9,4,0,53,34,21,30.06,30.03,30.01,10,10,10,20,9,29,0.00,0,,275
2012-12-21,50,40,28,18,9,5,47,31,17,30.02,29.97,29.91,10,10,10,9,4,,0.00,0,,147
2012-12-22,35,22,10,18,11,3,93,55,28,30.02,29.94,29.81,10,10,5,10,4,,0.00,0,,288
2012-12-23,23,16,8,19,12,7,93,89,80,29.94,29.86,29.75,10,6,0,12,4,,0.28,4,Snow,293
2012-12-24,10,5,0,9,3,-2,92,87,79,30.18,29.98,29.88,10,7,2,12,4,,0.28,3,Snow,50
2012-12-25,8,4,0,3,-2,-6,92,83,78,30.27,30.16,30.01,10,8,2,6,3,,0.56,3,Snow,258
2012-12-26,6,2,-2,3,0,-8,92,84,78,30.01,29.83,29.73,10,9,2,8,3,,0.34,2,Snow,317
2012-12-27,8,4,0,5,1,-4,92,84,79,29.90,29.82,29.72,10,8,1,9,5,,2.64,4,Snow,283
2012-12-28,28,14,1,19,11,-2,92,71,59,29.98,29.92,29.88,10,10,4,18,7,22,0.02,5,Snow,276
2012-12-29,35,26,17,16,12,7,68,57,38,30.04,29.98,29.90,10,10,10,17,10,22,0.00,0,,251
2012-12-30,26,19,12,19,11,3,86,67,50,30.03,29.95,29.85,10,10,10,22,8,30,0.00,2,,277
2012-12-31,28,18,8,16,8,1,80,68,50,30.03,30.00,29.95,10,10,10,10,4,,0.00,1,,238